Map

Track Data

SID SEASON NUMBER BASIN SUBBASIN NAME ISO_TIME NATURE LAT LON WMO_WIND WMO_PRES WMO_AGENCY TRACK_TYPE DIST2LAND LANDFALL IFLAG USA_AGENCY USA_ATCF_ID USA_LAT USA_LON USA_RECORD USA_STATUS USA_WIND USA_PRES USA_SSHS USA_R34_NE USA_R34_SE USA_R34_SW USA_R34_NW USA_R50_NE USA_R50_SE USA_R50_SW USA_R50_NW USA_R64_NE USA_R64_SE USA_R64_SW USA_R64_NW USA_POCI USA_ROCI USA_RMW USA_EYE TOKYO_LAT TOKYO_LON TOKYO_GRADE TOKYO_WIND TOKYO_PRES TOKYO_R50_DIR TOKYO_R50_LONG TOKYO_R50_SHORT TOKYO_R30_DIR TOKYO_R30_LONG TOKYO_R30_SHORT TOKYO_LAND CMA_LAT CMA_LON CMA_CAT CMA_WIND CMA_PRES HKO_LAT HKO_LON HKO_CAT HKO_WIND HKO_PRES NEWDELHI_LAT NEWDELHI_LON NEWDELHI_GRADE NEWDELHI_WIND NEWDELHI_PRES NEWDELHI_CI NEWDELHI_DP NEWDELHI_POCI REUNION_LAT REUNION_LON REUNION_TYPE REUNION_WIND REUNION_PRES REUNION_TNUM REUNION_CI REUNION_RMW REUNION_R34_NE REUNION_R34_SE REUNION_R34_SW REUNION_R34_NW REUNION_R50_NE REUNION_R50_SE REUNION_R50_SW REUNION_R50_NW REUNION_R64_NE REUNION_R64_SE REUNION_R64_SW REUNION_R64_NW BOM_LAT BOM_LON BOM_TYPE BOM_WIND BOM_PRES BOM_TNUM BOM_CI BOM_RMW BOM_R34_NE BOM_R34_SE BOM_R34_SW BOM_R34_NW BOM_R50_NE BOM_R50_SE BOM_R50_SW BOM_R50_NW BOM_R64_NE BOM_R64_SE BOM_R64_SW BOM_R64_NW BOM_ROCI BOM_POCI BOM_EYE BOM_POS_METHOD BOM_PRES_METHOD NADI_LAT NADI_LON NADI_CAT NADI_WIND NADI_PRES WELLINGTON_LAT WELLINGTON_LON WELLINGTON_WIND WELLINGTON_PRES DS824_LAT DS824_LON DS824_STAGE DS824_WIND DS824_PRES TD9636_LAT TD9636_LON TD9636_STAGE TD9636_WIND TD9636_PRES TD9635_LAT TD9635_LON TD9635_WIND TD9635_PRES TD9635_ROCI NEUMANN_LAT NEUMANN_LON NEUMANN_CLASS NEUMANN_WIND NEUMANN_PRES MLC_LAT MLC_LON MLC_CLASS MLC_WIND MLC_PRES USA_GUST BOM_GUST BOM_GUST_PER REUNION_GUST REUNION_GUST_PER USA_SEAHGT USA_SEARAD_NE USA_SEARAD_SE USA_SEARAD_SW USA_SEARAD_NW STORM_SPEED STORM_DIR
2021135N12072 2021 22 NI AS TAUKTAE 2021-05-14 12:00:00 TS 11.7000 72.1500 PROVISIONAL 308 300 O_____________ tcvightals AS012021 11.5000 72.1000 35 998 0 60 90 90 60 1004 190 45 4 0
2021135N12072 2021 22 NI AS TAUKTAE 2021-05-14 15:00:00 TS 11.9060 72.1583 PROVISIONAL 300 293 P_____________ AS012021 11.7075 71.9757 39 995 -1 60 92 90 60 1003 165 42 4 11
2021135N12072 2021 22 NI AS TAUKTAE 2021-05-14 18:00:00 TS 12.1290 72.2356 PROVISIONAL 293 264 I_____________ tcvightals AS012021 11.9579 71.9712 43 993 -1 60 95 90 60 1002 140 40 6 29
2021135N12072 2021 22 NI AS TAUKTAE 2021-05-14 21:00:00 TS 12.3866 72.4293 PROVISIONAL 264 226 P_____________ AS012021 12.2742 72.1564 47 991 -1 60 92 92 60 1002 140 35 7 37
2021135N12072 2021 22 NI AS TAUKTAE 2021-05-15 00:00:00 TS 12.6889 72.6667 PROVISIONAL 226 197 O_____________ tcvitals AS012021 12.6000 72.4000 51 989 0 60 90 95 60 30 30 1002 140 30 8 37
2021135N12072 2021 22 NI AS TAUKTAE 2021-05-15 03:00:00 TS 13.0443 72.9459 PROVISIONAL 197 170 P_____________ AS012021 12.8677 72.5458 -1 42 42 1002 160 30 8 32
2021135N12072 2021 22 NI AS TAUKTAE 2021-05-15 06:00:00 TS 13.3969 73.1249 PROVISIONAL 170 155 O_____________ tcvitals AS012021 13.1220 72.6580 -1 45 55 55 45 1002 180 30 7 12
2021135N12072 2021 22 NI AS TAUKTAE 2021-05-15 09:00:00 TS 13.7221 73.0928 PROVISIONAL 155 140 P_____________ AS012021 13.3915 72.7726 -1 37 50 62 52 1000 180 27 7 353
2021135N12072 2021 22 NI AS TAUKTAE 2021-05-15 12:00:00 TS 14.0568 73.0355 PROVISIONAL 142 131 O_____________ tcvitals AS012021 13.6750 72.8634 -1 30 45 70 60 998 180 25 6 353
2021135N12072 2021 22 NI AS TAUKTAE 2021-05-15 15:00:00 TS 14.2874 73.0184 PROVISIONAL 131 117 P_____________ AS012021 13.9709 72.9329 -1 57 62 55 50 999 240 19 4 354
2021135N12072 2021 22 NI AS TAUKTAE 2021-05-15 18:00:00 TS 14.4767 72.9958 PROVISIONAL 117 106 O_____________ tcvitals AS012021 14.2904 72.9623 -1 85 80 40 40 1001 300 14 4 351
2021135N12072 2021 22 NI AS TAUKTAE 2021-05-15 21:00:00 TS 14.7050 72.9500 PROVISIONAL 116 108 P_____________ AS012021 14.6239 72.9461 -1 65 60 47 47 1000 237 12 5 350
2021135N12072 2021 22 NI AS TAUKTAE 2021-05-16 00:00:00 TS 15.0000 72.9000 PROVISIONAL 108 88 O_____________ tcvightals AS012021 15.0000 72.9000 74 972 1 110 115 150 145 45 40 55 55 25 25 25 25 999 175 10 7 353
2021135N12072 2021 22 NI AS TAUKTAE 2021-05-16 03:00:00 TS 15.4200 72.8574 PROVISIONAL 88 78 P_____________ AS012021 15.4357 72.8603 81 967 -1 120 117 132 135 52 42 55 57 30 27 22 25 1000 167 15 9 354
2021135N12072 2021 22 NI AS TAUKTAE 2021-05-16 06:00:00 TS 15.9000 72.8000 PROVISIONAL 78 63 O_____________ tcvightals AS012021 15.9000 72.8000 89 962 2 130 120 115 125 60 45 55 60 35 30 20 25 1002 160 20 9 352
2021135N12072 2021 22 NI AS TAUKTAE 2021-05-16 09:00:00 TS 16.3424 72.7335 PROVISIONAL 67 63 P_____________ AS012021 16.3425 72.7298 94 957 -1 132 122 120 127 70 55 60 65 40 32 25 30 1001 170 25 9 348
2021135N12072 2021 22 NI AS TAUKTAE 2021-05-16 12:00:00 TS 16.8000 72.6000 PROVISIONAL 74 74 O_____________ tcvightals AS012021 16.8000 72.6000 99 952 3 135 125 125 130 80 65 65 70 45 35 30 35 1000 180 30 11 339
2021135N12072 2021 22 NI AS TAUKTAE 2021-05-16 15:00:00 TS 17.3188 72.3440 PROVISIONAL 91 85 P_____________ AS012021 17.3150 72.3801 104 946 -1 92 100 102 95 57 55 55 55 32 30 30 27 1000 162 17 11 332
2021135N12072 2021 22 NI AS TAUKTAE 2021-05-16 18:00:00 TS 17.8000 72.0500 PROVISIONAL 95 95 O_____________ tcvightals AS012021 17.8000 72.1000 109 941 3 50 75 80 60 35 45 45 40 20 25 30 20 1000 145 5 10 10 328
2021135N12072 2021 22 NI AS TAUKTAE 2021-05-16 21:00:00 TS 18.1437 71.8023 PROVISIONAL 116 116 P_____________ AS012021 18.1726 71.7775 114 938 -1 87 107 95 87 45 60 52 47 25 32 30 25 998 137 5 8 327
2021135N12072 2021 22 NI AS TAUKTAE 2021-05-17 00:00:00 TS 18.4500 71.6000 PROVISIONAL 134 134 O_____________ tcvightals AS012021 18.5000 71.5000 119 935 4 125 140 110 115 55 75 60 55 30 40 30 30 997 130 5 10 8 333
2021135N12072 2021 22 NI AS TAUKTAE 2021-05-17 03:00:00 TS 18.8137 71.4487 PROVISIONAL 147 140 P_____________ AS012021 18.8424 71.3623 117 937 -1 140 142 115 125 70 77 60 60 37 40 27 30 999 145 8 8 343
2021135N12072 2021 22 NI AS TAUKTAE 2021-05-17 06:00:00 TS 19.2000 71.3500 PROVISIONAL 140 133 O_____________ tcvightals AS012021 19.2000 71.3000 115 939 4 155 145 120 135 85 80 60 65 45 40 25 30 1001 160 12 15 8 348
2021135N12072 2021 22 NI AS TAUKTAE 2021-05-17 09:00:00 TS 19.5962 71.2775 PROVISIONAL 133 91 P_____________ AS012021 19.5925 71.2275 107 944 -1 155 145 125 137 82 77 62 67 45 42 30 35 1000 180 8 8 354
2021135N12072 2021 22 NI AS TAUKTAE 2021-05-17 12:00:00 TS 20.0000 71.2571 PROVISIONAL 91 49 O_____________ tcvightals AS012021 20.0000 71.2000 99 949 3 155 145 130 140 80 75 65 70 45 45 35 40 999 200 5 10 8 359
2021135N12072 2021 22 NI AS TAUKTAE 2021-05-17 15:00:00 TS 20.4108 71.2774 PROVISIONAL 49 11 P_____________ AS012021 20.4150 71.2498 104 945 -1 135 140 122 120 77 82 65 65 40 40 35 35 999 205 9 8 3
2021135N12072 2021 22 NI AS TAUKTAE 2021-05-17 18:00:00 TS 20.8000 71.3000 PROVISIONAL 11 0 O_____________ tcvightals AS012021 20.8000 71.3000 109 942 3 115 135 115 100 75 90 65 60 35 35 35 30 1000 210 14 20 7 355
2021135N12072 2021 22 NI AS TAUKTAE 2021-05-17 21:00:00 TS 21.1075 71.2203 PROVISIONAL 0 0 P_____________ AS012021 21.1075 71.2278 102 948 -1 97 130 110 92 52 60 47 55 30 30 30 27 1000 210 12 6 351
2021135N12072 2021 22 NI AS TAUKTAE 2021-05-18 00:00:00 TS 21.4000 71.2000 PROVISIONAL 0 0 O_____________ tcgp IO012021 21.4000 71.2000 TY 95 955 2 80 125 105 85 30 30 30 50 25 25 25 25 1000 210 10 6 11
2021135N12072 2021 22 NI AS TAUKTAE 2021-05-18 03:00:00 TS 21.7199 71.3401 PROVISIONAL 0 0 P_____________ IO012021 21.7199 71.3401 TY 85 961 2 97 135 107 90 45 55 42 47 27 32 27 25 1000 210 12 8 28
2021135N12072 2021 22 NI AS TAUKTAE 2021-05-18 06:00:00 TS 22.1000 71.6000 PROVISIONAL 0 0 O_____________ tcgp IO012021 22.1000 71.6000 TY 75 967 1 115 145 110 95 60 80 55 45 30 40 30 25 1000 210 15 10 32
2021135N12072 2021 22 NI AS TAUKTAE 2021-05-18 09:00:00 TS 22.5850 71.9199 PROVISIONAL 0 0 P_____________ IO012021 22.5850 71.9199 TY 67 974 1 95 115 77 75 47 60 35 32 15 20 15 12 1000 210 15 12 33
2021135N12072 2021 22 NI AS TAUKTAE 2021-05-18 12:00:00 TS 23.1000 72.3000 PROVISIONAL 0 0 O_____________ tcgp IO012021 23.1000 72.3000 TS 60 981 0 75 85 45 55 35 40 15 20 1000 210 15 12 35
2021135N12072 2021 22 NI AS TAUKTAE 2021-05-18 15:00:00 TS 23.5497 72.6632 PROVISIONAL 0 0 P_____________ IO012021 23.5497 72.6632 TS 52 985 0 77 87 60 67 17 20 7 10 1001 177 15 12 39
2021135N12072 2021 22 NI AS TAUKTAE 2021-05-18 18:00:00 TS 24.0000 73.1000 PROVISIONAL 0 0 O_____________ tcgp IO012021 24.0000 73.1000 TS 45 989 0 80 90 75 80 1002 145 15 13 44
2021135N12072 2021 22 NI AS TAUKTAE 2021-05-18 21:00:00 TS 24.4882 73.6611 PROVISIONAL 0 0 P_____________ IO012021 24.4882 73.6611 TS 40 992 0 80 90 65 70 1001 140 15 15 48
2021135N12072 2021 22 NI AS TAUKTAE 2021-05-19 00:00:00 TS 25.0000 74.3000 PROVISIONAL 0 O_____________ tcgp IO012021 25.0000 74.3000 TS 35 996 0 80 90 55 60 1001 135 15 16 48

About IBTrACS Database

This database is a web-friendly format of International Best Track Archive for Climate Stewardship (IBTrACS), a global best track data archive curated by NOAA dating back to 1842.

Updated: 2021-12-03